Аэропорт: им. Гейдара Алиева. Баку

ICAO: UBBB

METAR:
2021-10-23 00:30:00
UBBB 230030Z 17008KT CAVOK 15/12 Q1020 R88/D NOSIG
METAR:
2021-10-22 23:23:00
TAF UBBB 222323Z 2300/2324 17012KT 9999 SCT030 TX21/2310Z TN13/2301Z TEMPO 2300/2306 21006KT SCT008 SCT020 TEMPO 2310/2316 VRB04KT BECMG 2316/2318 32006KT